createdAt,value
2018-09-08T10:38:31.305Z,62.28
2018-09-08T10:39:31.193Z,61.68
2018-09-08T10:41:24.489Z,61.41
2018-09-08T10:42:24.424Z,61.71
2018-09-08T10:43:24.369Z,62.96
2018-09-08T10:44:24.313Z,63.15
2018-09-08T10:45:24.263Z,64.89
2018-09-08T10:46:24.215Z,62.28
2018-09-08T10:47:24.162Z,61.32
2018-09-08T10:48:24.108Z,60.93
2018-09-08T10:49:24.057Z,63.82
2018-09-08T10:50:24.021Z,62.48
2018-09-08T10:51:23.965Z,61.90
2018-09-08T10:52:23.907Z,61.41
2018-09-08T10:53:23.854Z,61.22
2018-09-08T10:54:23.807Z,62.38
2018-09-08T10:55:23.775Z,61.93
2018-09-08T10:56:23.702Z,59.80
2018-09-08T10:57:23.666Z,60.83
2018-09-08T10:58:23.604Z,63.18
2018-09-08T10:59:23.555Z,63.47
2018-09-08T11:00:23.508Z,61.44
2018-09-08T11:01:23.500Z,62.44
2018-09-08T11:02:23.576Z,60.51
2018-09-08T11:03:23.369Z,59.35
2018-09-08T11:04:23.315Z,59.64
2018-09-08T11:05:23.263Z,60.64
2018-09-08T11:06:23.215Z,61.12
2018-09-08T11:07:23.167Z,61.60
2018-09-08T11:08:23.132Z,58.80
2018-09-08T11:09:23.071Z,59.38
2018-09-08T11:10:23.027Z,60.86
2018-09-08T11:11:22.976Z,57.67
2018-09-08T11:12:22.926Z,60.38
2018-09-08T11:13:22.878Z,58.83
2018-09-08T11:14:22.832Z,60.18
2018-09-08T11:15:22.789Z,61.83
2018-09-08T11:16:22.738Z,60.96
2018-09-08T11:17:22.694Z,61.08
2018-09-08T11:18:22.643Z,58.47
2018-09-08T11:19:22.596Z,57.89
2018-09-08T11:20:22.554Z,56.67
2018-09-08T11:21:22.510Z,57.05
2018-09-08T11:22:22.452Z,59.31
2018-09-08T11:23:22.406Z,57.59
2018-09-08T11:24:22.359Z,55.46
2018-09-08T11:25:22.359Z,56.62
2018-09-08T11:26:22.268Z,56.94
2018-09-08T11:27:22.232Z,55.49
2018-09-08T11:28:22.177Z,54.81
2018-09-08T11:29:22.124Z,56.16
2018-09-08T11:30:22.078Z,54.91
2018-09-08T11:31:22.032Z,54.33
2018-09-08T11:32:21.988Z,54.81
2018-09-08T11:33:21.936Z,55.10
2018-09-08T11:34:21.889Z,53.58
2018-09-08T11:35:21.850Z,53.00
2018-09-08T11:36:21.797Z,53.97
2018-09-08T11:37:21.757Z,53.67
2018-09-08T11:38:21.813Z,52.12
2018-09-08T11:39:21.656Z,53.39
2018-09-08T11:40:21.613Z,53.41
2018-09-08T11:41:21.578Z,52.15
2018-09-08T11:42:21.519Z,51.18
2018-09-08T11:43:21.476Z,50.89
2018-09-08T11:44:21.425Z,52.64
2018-09-08T11:45:21.378Z,51.76
2018-09-08T11:46:21.331Z,51.86
2018-09-08T11:47:21.299Z,52.06
2018-09-08T11:48:21.241Z,50.50
2018-09-08T11:49:21.212Z,50.99
2018-09-08T11:50:21.151Z,49.80
2018-09-08T11:51:21.233Z,51.93
2018-09-08T11:52:21.059Z,51.35
2018-09-08T11:53:21.012Z,53.09
2018-09-08T11:54:20.962Z,53.09
2018-09-08T11:55:20.916Z,51.35
2018-09-08T11:56:20.873Z,53.19
2018-09-08T11:57:20.822Z,53.45
2018-09-08T11:58:20.777Z,54.81
2018-09-08T11:59:20.730Z,55.10
2018-09-08T12:00:20.684Z,51.59
2018-09-08T12:01:20.643Z,51.78
2018-09-08T12:02:20.620Z,52.85
2018-09-08T12:03:20.545Z,53.72
2018-09-08T12:04:20.503Z,55.07
2018-09-08T12:05:20.455Z,54.95
2018-09-08T12:06:20.446Z,54.59
2018-09-08T12:07:20.362Z,55.17
2018-09-08T12:08:20.324Z,54.98
2018-09-08T12:09:20.268Z,55.36
2018-09-08T12:10:20.220Z,55.17
2018-09-08T12:11:20.175Z,53.04
2018-09-08T12:12:20.130Z,54.21
2018-09-08T12:13:20.082Z,53.43
2018-09-08T12:14:20.591Z,52.95
2018-09-08T12:15:19.990Z,52.27
2018-09-08T12:16:19.945Z,53.81
2018-09-08T12:17:19.900Z,55.85
2018-09-08T12:18:19.858Z,53.31
2018-09-08T12:19:19.807Z,53.33
2018-09-08T12:20:19.760Z,51.98
2018-09-08T12:21:19.713Z,51.50
2018-09-08T12:22:19.767Z,52.75
2018-09-08T12:23:19.647Z,53.14
2018-09-08T12:24:19.584Z,52.56
2018-09-08T12:25:19.531Z,53.23
2018-09-08T12:26:19.483Z,53.04
2018-09-08T12:27:19.436Z,51.50
2018-09-08T12:28:19.395Z,51.50
2018-09-08T12:29:19.346Z,53.65
2018-09-08T12:30:19.349Z,54.88
2018-09-08T12:31:19.261Z,54.88
2018-09-08T12:32:19.213Z,53.63
2018-09-08T12:33:19.160Z,53.14
2018-09-08T12:34:19.116Z,52.85
2018-09-08T12:35:19.072Z,51.68
2018-09-08T12:36:19.024Z,54.30
2018-09-08T12:37:19.037Z,55.07
2018-09-08T12:38:18.931Z,54.69
2018-09-08T12:39:18.893Z,54.30
2018-09-08T12:40:18.840Z,55.27
2018-09-08T12:41:18.794Z,54.98
2018-09-08T12:42:18.751Z,54.62
2018-09-08T12:43:18.703Z,53.75
2018-09-08T12:44:18.655Z,53.94
2018-09-08T12:45:18.609Z,51.90
2018-09-08T12:46:18.564Z,52.58
2018-09-08T12:47:18.519Z,53.17
2018-09-08T12:48:18.474Z,55.10
2018-09-08T12:49:18.425Z,53.55
2018-09-08T12:50:18.381Z,51.72
2018-09-08T12:51:18.335Z,51.90
2018-09-08T12:52:18.292Z,52.29
2018-09-08T12:53:18.285Z,52.00
2018-09-08T12:54:18.199Z,48.32
2018-09-08T12:55:18.153Z,50.09
2018-09-08T12:56:18.108Z,51.64
2018-09-08T12:57:18.061Z,53.49
2018-09-08T12:58:18.017Z,51.64
2018-09-08T12:59:18.026Z,52.22
2018-09-08T13:00:17.925Z,51.93
2018-09-08T13:01:17.878Z,52.32
2018-09-08T13:02:17.834Z,51.35
2018-09-08T13:03:17.796Z,50.87
2018-09-08T13:04:17.743Z,53.00
2018-09-08T13:05:17.701Z,51.47
2018-09-08T13:06:17.651Z,51.28
2018-09-08T13:07:17.606Z,50.60
2018-09-08T13:08:17.561Z,50.60
2018-09-08T13:09:17.517Z,51.59
2018-09-08T13:10:17.471Z,51.11
2018-09-08T13:11:17.424Z,50.62
2018-09-08T13:12:17.378Z,49.92
2018-09-08T13:13:17.332Z,49.95
2018-09-08T13:14:17.296Z,49.66
2018-09-08T13:15:17.243Z,48.88
2018-09-08T13:16:17.199Z,49.77
2018-09-08T13:17:17.152Z,48.03
2018-09-08T13:18:17.106Z,49.39
2018-09-08T13:19:17.061Z,47.93
2018-09-08T13:20:17.021Z,49.58
2018-09-08T13:21:16.969Z,48.52
2018-09-08T13:22:16.923Z,47.93
2018-09-08T13:23:16.879Z,48.61
2018-09-08T13:24:16.833Z,50.16
2018-09-08T13:25:16.788Z,49.19
2018-09-08T13:26:16.743Z,49.97
2018-09-08T13:27:16.702Z,50.07
2018-09-08T13:28:16.654Z,49.95
2018-09-08T13:29:16.605Z,50.79
2018-09-08T13:30:16.561Z,51.37
2018-09-08T13:31:16.515Z,51.45
2018-09-08T13:32:16.470Z,51.25
2018-09-08T13:33:16.423Z,52.10
2018-09-08T13:34:16.382Z,51.81
2018-09-08T13:35:16.336Z,53.45
2018-09-08T13:36:16.288Z,53.45
2018-09-08T13:37:16.243Z,52.29
2018-09-08T13:38:16.201Z,52.39
2018-09-08T13:39:16.153Z,51.68
2018-09-08T13:40:16.108Z,53.36
2018-09-08T13:41:16.060Z,55.00
2018-09-08T13:42:16.015Z,53.65
2018-09-08T13:43:15.970Z,49.75
2018-09-08T13:44:15.925Z,49.65
2018-09-08T13:45:15.884Z,51.98
2018-09-08T13:46:15.835Z,54.98
2018-09-08T13:47:15.820Z,53.53
2018-09-08T13:48:15.741Z,54.21
2018-09-08T13:49:15.695Z,54.98
2018-09-08T13:50:15.650Z,54.59
2018-09-08T13:51:15.607Z,53.81
2018-09-08T13:52:15.564Z,54.01
2018-09-08T13:53:15.515Z,54.88
2018-09-08T13:54:15.468Z,54.11
2018-09-08T13:55:15.424Z,54.88
2018-09-08T13:56:15.378Z,52.95
2018-09-08T13:57:15.384Z,54.30
2018-09-08T13:58:15.337Z,53.43
2018-09-08T13:59:15.253Z,53.33
2018-09-08T14:00:15.257Z,50.52
2018-09-08T14:01:16.117Z,49.95
2018-09-08T14:02:15.251Z,49.85
2018-09-08T14:03:15.090Z,49.73
2018-09-08T14:04:15.216Z,49.73
2018-09-08T14:05:14.973Z,53.02
2018-09-08T14:06:14.954Z,54.95
2018-09-08T14:07:14.874Z,55.63
2018-09-08T14:08:14.828Z,55.92
2018-09-08T14:09:14.783Z,54.17
2018-09-08T14:10:14.741Z,54.59
2018-09-08T14:11:14.693Z,51.50
2018-09-08T14:12:14.646Z,49.73
2018-09-08T14:13:14.600Z,51.56
2018-09-08T14:14:14.555Z,53.99
2018-09-08T14:15:14.519Z,55.43
2018-09-08T14:16:14.463Z,53.41
2018-09-08T14:17:14.417Z,54.11
2018-09-08T14:18:14.376Z,53.91
2018-09-08T14:19:14.325Z,54.69
2018-09-08T14:20:14.280Z,50.52
2018-09-08T14:21:14.257Z,49.44
2018-09-08T14:22:14.195Z,49.44
2018-09-08T14:23:14.142Z,51.66
2018-09-08T14:24:14.097Z,54.08
2018-09-08T14:25:14.071Z,54.57
2018-09-08T14:26:14.004Z,52.24
2018-09-08T14:27:13.959Z,49.82
2018-09-08T14:28:13.995Z,50.50
2018-09-08T14:29:13.869Z,50.02
2018-09-08T14:30:13.823Z,50.31
2018-09-08T14:31:13.917Z,51.86
2018-09-08T14:32:13.732Z,54.66
2018-09-08T14:33:13.695Z,54.66
2018-09-08T14:34:13.637Z,53.99
2018-09-08T14:35:13.592Z,54.57
2018-09-08T14:36:13.553Z,53.31
2018-09-08T14:37:13.500Z,53.02
2018-09-08T14:38:13.454Z,53.11
2018-09-08T14:39:13.410Z,54.75
2018-09-08T14:40:13.363Z,53.99
2018-09-08T14:41:13.316Z,54.75
2018-09-08T14:42:13.271Z,54.95
2018-09-08T14:43:13.228Z,55.63
2018-09-08T14:44:13.180Z,55.53
2018-09-08T14:45:13.133Z,56.21
2018-09-08T14:46:13.088Z,56.21
2018-09-08T14:47:13.747Z,54.66
2018-09-08T14:48:13.006Z,53.79
2018-09-08T14:49:12.948Z,56.11
2018-09-08T14:50:12.906Z,55.24
2018-09-08T14:51:12.879Z,53.09
2018-09-08T14:52:12.814Z,54.44
2018-09-08T14:53:12.766Z,56.30
2018-09-08T14:54:12.719Z,56.21
2018-09-08T14:55:12.677Z,55.15
2018-09-08T14:56:12.628Z,54.83
2018-09-08T14:57:12.655Z,54.73
2018-09-08T14:58:12.546Z,53.19
2018-09-08T14:59:12.491Z,56.60
2018-09-08T15:00:12.447Z,56.79
2018-09-08T15:01:12.400Z,56.67
2018-09-08T15:02:12.354Z,57.92
2018-09-08T15:03:12.340Z,56.95
2018-09-08T15:04:12.261Z,56.57
2018-09-08T15:05:12.324Z,54.93
2018-09-08T15:06:12.169Z,54.93
2018-09-08T15:07:12.149Z,53.25
2018-09-08T15:08:12.098Z,55.57
2018-09-08T15:09:12.032Z,55.31
2018-09-08T15:10:11.984Z,54.90
2018-09-08T15:11:11.942Z,57.63
2018-09-08T15:12:11.893Z,57.82
2018-09-08T15:13:11.845Z,58.76
2018-09-08T15:14:11.800Z,55.19
2018-09-08T15:15:11.756Z,57.51
2018-09-08T15:16:11.714Z,58.57
2018-09-08T15:17:11.669Z,57.03
2018-09-08T15:18:11.615Z,55.09
2018-09-08T15:19:11.570Z,55.09
2018-09-08T15:20:11.523Z,56.35
2018-09-08T15:21:11.477Z,57.60
2018-09-08T15:22:11.435Z,55.09
2018-09-08T15:23:11.474Z,57.79
2018-09-08T15:24:11.354Z,57.79
2018-09-08T15:25:11.294Z,56.83
2018-09-08T15:26:11.281Z,58.09
2018-09-08T15:27:11.354Z,59.34
2018-09-08T15:28:11.305Z,60.99
2018-09-08T15:29:11.209Z,60.76
2018-09-08T15:30:11.125Z,60.57
2018-09-08T15:31:11.016Z,59.41
2018-09-08T15:32:10.972Z,58.83
2018-09-08T15:33:10.922Z,59.60
2018-09-08T15:34:10.877Z,60.76
2018-09-08T15:35:10.830Z,60.09
2018-09-08T15:36:10.785Z,59.70
2018-09-08T15:37:10.738Z,59.12
2018-09-08T15:38:10.694Z,57.38
2018-09-08T15:39:10.644Z,60.67
2018-09-08T15:40:10.653Z,60.86
2018-09-08T15:41:10.552Z,61.63
2018-09-08T15:42:10.505Z,58.83
2018-09-08T15:43:10.461Z,58.73
2018-09-08T15:44:10.415Z,59.02
2018-09-08T15:45:10.368Z,58.15
2018-09-08T15:46:10.321Z,60.57
2018-09-08T15:47:10.276Z,61.44
2018-09-08T15:48:10.227Z,62.12
2018-09-08T15:49:10.186Z,61.31
2018-09-08T15:50:10.135Z,62.21
2018-09-08T15:51:10.089Z,60.86
2018-09-08T15:52:10.043Z,62.12
2018-09-08T15:53:09.994Z,61.12
2018-09-08T15:54:09.952Z,62.76
2018-09-08T15:55:09.901Z,62.08
2018-09-08T15:56:09.860Z,61.02
2018-09-08T15:57:09.808Z,62.95
2018-09-08T15:58:09.826Z,63.82
2018-09-08T15:59:09.715Z,64.01
2018-09-08T16:00:09.673Z,63.63
2018-09-08T16:01:09.626Z,63.05
2018-09-08T16:02:09.577Z,62.47
2018-09-08T16:03:09.548Z,62.86
2018-09-08T16:04:09.481Z,60.93
2018-09-08T16:05:09.435Z,62.95
2018-09-08T16:06:09.389Z,62.47
2018-09-08T16:07:09.341Z,62.86
2018-09-08T16:08:09.297Z,63.43
2018-09-08T16:09:09.250Z,63.92
2018-09-08T16:10:09.201Z,63.92
2018-09-08T16:11:09.157Z,62.76
2018-09-08T16:12:09.110Z,63.50
2018-09-08T16:13:09.062Z,63.24
2018-09-08T16:14:09.016Z,64.86
2018-09-08T16:15:08.969Z,66.30
2018-09-08T16:16:08.923Z,64.76
2018-09-08T16:17:08.874Z,64.47
2018-09-08T16:18:08.828Z,63.60
2018-09-08T16:19:08.782Z,63.40
2018-09-08T16:20:08.739Z,63.31
2018-09-08T16:21:08.688Z,63.31
2018-09-08T16:22:08.644Z,64.37
2018-09-08T16:23:08.595Z,65.63
2018-09-08T16:24:08.554Z,65.05
2018-09-08T16:25:08.503Z,64.66
2018-09-08T16:26:08.455Z,65.05
2018-09-08T16:27:08.408Z,63.89
2018-09-08T16:28:08.361Z,62.82
2018-09-08T16:29:08.315Z,64.18
2018-09-08T16:30:08.272Z,64.95
2018-09-08T16:31:08.221Z,63.50
2018-09-08T16:32:08.176Z,64.18
2018-09-08T16:33:08.128Z,64.18
2018-09-08T16:34:08.080Z,64.18
2018-09-08T16:35:08.037Z,63.98
2018-09-08T16:36:07.994Z,63.02
2018-09-08T16:37:07.939Z,64.95
2018-09-08T16:38:07.894Z,63.31
2018-09-08T16:39:07.849Z,62.54
2018-09-08T16:40:07.813Z,62.02
2018-09-08T16:41:07.753Z,62.44
2018-09-08T16:42:07.711Z,60.71
2018-09-08T16:43:12.157Z,62.02
2018-09-08T16:44:07.626Z,63.09
2018-09-08T16:45:07.563Z,63.09
2018-09-08T16:46:07.518Z,61.54
2018-09-08T16:47:07.469Z,63.28
2018-09-08T16:48:07.423Z,64.63
2018-09-08T16:49:07.376Z,63.67
2018-09-08T16:50:07.333Z,65.30
2018-09-08T16:51:07.282Z,65.98
2018-09-08T16:52:07.308Z,66.46
2018-09-08T16:53:07.188Z,66.94
2018-09-08T16:54:07.140Z,68.59
2018-09-08T16:55:07.097Z,69.07
2018-09-08T16:56:07.046Z,69.35
2018-09-08T16:57:06.999Z,69.45
2018-09-08T16:58:06.992Z,68.49
2018-09-08T16:59:06.906Z,69.61
2018-09-08T17:00:06.858Z,69.71
2018-09-08T17:01:06.811Z,69.71
2018-09-08T17:02:06.765Z,69.61
2018-09-08T17:03:06.718Z,68.55
2018-09-08T17:04:06.674Z,68.65
2018-09-08T17:05:06.708Z,69.03
2018-09-08T17:06:06.576Z,67.10
2018-09-08T17:07:06.529Z,69.23
2018-09-08T17:08:06.482Z,70.57
2018-09-08T17:09:06.441Z,70.83
2018-09-08T17:10:06.386Z,69.38
2018-09-08T17:11:06.344Z,70.73
2018-09-08T17:12:06.294Z,70.64
2018-09-08T17:13:06.246Z,72.08
2018-09-08T17:14:06.200Z,72.95
2018-09-08T17:15:06.150Z,71.56
2018-09-08T17:16:06.113Z,73.10
2018-09-08T17:17:06.063Z,73.10
2018-09-08T17:18:06.009Z,72.43
2018-09-08T17:19:05.970Z,73.01
2018-09-08T17:20:05.914Z,70.50
2018-09-08T17:21:05.867Z,72.14
2018-09-08T17:22:05.828Z,72.33
2018-09-08T17:23:05.777Z,69.06
2018-09-08T17:24:05.725Z,69.45
2018-09-08T17:25:05.677Z,67.71
2018-09-08T17:26:05.631Z,67.33
2018-09-08T17:27:05.584Z,67.03
2018-09-08T17:28:05.535Z,67.33
2018-09-08T17:29:05.494Z,67.42
2018-09-08T17:30:05.445Z,68.68
2018-09-08T17:31:05.393Z,67.81
2018-09-08T17:32:05.345Z,67.71
2018-09-08T17:33:05.299Z,68.29
2018-09-08T17:34:05.312Z,67.42
2018-09-08T17:35:05.208Z,68.68
2018-09-08T17:36:05.156Z,71.85
2018-09-08T17:37:05.114Z,69.73
2018-09-08T17:38:05.063Z,68.16
2018-09-08T17:39:05.015Z,67.42
2018-09-08T17:40:04.970Z,69.12
2018-09-08T17:41:04.917Z,67.90
2018-09-08T17:42:04.872Z,68.35
2018-09-08T17:43:04.822Z,69.12
2018-09-08T17:44:04.775Z,69.51
2018-09-08T17:45:04.726Z,72.01
2018-09-08T17:46:04.679Z,70.95
2018-09-08T17:47:04.633Z,69.79
2018-09-08T17:48:04.583Z,68.93
2018-09-08T17:49:04.539Z,68.84
2018-09-08T17:50:04.487Z,68.84
2018-09-08T17:51:04.519Z,71.62
2018-09-08T17:52:04.438Z,73.07
2018-09-08T17:53:04.344Z,72.74
2018-09-08T17:54:04.298Z,72.84
2018-09-08T17:55:04.249Z,73.71
2018-09-08T17:56:04.202Z,74.96
2018-09-08T17:57:04.153Z,75.73
2018-09-08T17:58:04.105Z,76.84
2018-09-08T17:59:04.060Z,74.92
2018-09-08T18:00:04.010Z,74.05
2018-09-08T18:01:03.961Z,73.47
2018-09-08T18:02:03.915Z,73.67
2018-09-08T18:03:03.868Z,75.98
2018-09-08T18:04:03.826Z,77.23
2018-09-08T18:05:03.772Z,75.56
2018-09-08T18:06:03.726Z,77.48
2018-09-08T18:07:03.678Z,77.67
2018-09-08T18:08:03.626Z,77.00
2018-09-08T18:09:03.578Z,77.86
2018-09-08T18:10:03.532Z,78.06
2018-09-08T18:11:03.485Z,78.44
2018-09-08T18:12:03.434Z,77.09
2018-09-08T18:13:08.177Z,75.23
2018-09-08T18:14:03.338Z,74.37
2018-09-08T18:15:03.291Z,74.75
2018-09-08T18:16:03.246Z,74.27
2018-09-08T18:17:03.197Z,73.60
2018-09-08T18:18:03.144Z,75.52
2018-09-08T18:19:03.096Z,75.23
2018-09-08T18:20:03.047Z,76.48
2018-09-08T18:21:03.097Z,74.75
2018-09-08T18:22:02.952Z,75.62
2018-09-08T18:23:02.918Z,75.23
2018-09-08T18:24:02.855Z,76.67
2018-09-08T18:25:02.805Z,76.77
2018-09-08T18:26:02.758Z,78.21
2018-09-08T18:27:02.709Z,77.15
2018-09-08T18:28:02.661Z,76.57
2018-09-08T18:29:02.613Z,77.44
2018-09-08T18:30:02.564Z,77.15
2018-09-08T18:31:02.515Z,76.86
2018-09-08T18:32:02.467Z,78.45
2018-09-08T18:33:02.421Z,77.78
2018-09-08T18:34:03.185Z,78.65
2018-09-08T18:35:02.321Z,79.42
2018-09-08T18:36:02.274Z,79.22
2018-09-08T18:37:02.297Z,77.94
2018-09-08T18:38:02.177Z,78.08
2018-09-08T18:39:02.129Z,79.28
2018-09-08T18:40:02.080Z,80.24
2018-09-08T18:41:02.030Z,81.20
2018-09-08T18:42:01.984Z,81.10
2018-09-08T18:43:01.931Z,80.73
2018-09-08T18:44:01.885Z,81.10
2018-09-08T18:45:01.857Z,80.97
2018-09-08T18:46:01.787Z,81.35
2018-09-08T18:47:01.746Z,82.89
2018-09-08T18:48:01.690Z,83.27
2018-09-08T18:49:01.639Z,83.75
2018-09-08T18:50:01.595Z,83.47
2018-09-08T18:51:01.542Z,83.60
2018-09-08T18:52:01.497Z,83.27
2018-09-08T18:53:01.443Z,82.98
2018-09-08T18:54:01.408Z,83.56
2018-09-08T18:55:01.347Z,82.70
2018-09-08T18:56:01.299Z,82.98
2018-09-08T18:57:01.248Z,83.18
2018-09-08T18:58:01.201Z,82.89
2018-09-08T18:59:01.154Z,83.75
2018-09-08T19:00:01.107Z,84.42
2018-09-08T19:01:01.052Z,84.23
2018-09-08T19:02:01.004Z,84.61
2018-09-08T19:03:00.955Z,84.04
2018-09-08T19:04:00.907Z,83.18
2018-09-08T19:05:00.858Z,83.65
2018-09-08T19:06:00.808Z,84.33
2018-09-08T19:07:00.760Z,84.95
2018-09-08T19:08:00.710Z,85.53
2018-09-08T19:09:00.660Z,85.63
2018-09-08T19:10:00.610Z,85.15
2018-09-08T19:11:00.570Z,85.15
2018-09-08T19:12:00.513Z,85.63
2018-09-08T19:13:00.462Z,85.63
2018-09-08T19:14:00.415Z,85.63
2018-09-08T19:15:00.366Z,85.11
2018-09-08T19:16:00.319Z,85.58
2018-09-08T19:17:00.266Z,86.16
2018-09-08T19:18:00.222Z,85.78
2018-09-08T19:19:00.168Z,86.07
2018-09-08T19:20:00.140Z,86.93
2018-09-08T19:21:00.069Z,86.64
2018-09-08T19:22:00.021Z,86.97
2018-09-08T19:22:59.981Z,86.88
2018-09-08T19:23:59.921Z,86.97
2018-09-08T19:24:59.874Z,86.68
2018-09-08T19:25:59.822Z,86.45
2018-09-08T19:26:59.772Z,87.31
2018-09-08T19:27:59.726Z,87.02
2018-09-08T19:28:59.673Z,86.64
2018-09-08T19:29:59.626Z,87.21
2018-09-08T19:30:59.578Z,87.98
2018-09-08T19:31:59.526Z,88.94
2018-09-08T19:32:59.476Z,88.75
2018-09-08T19:33:59.428Z,87.79
2018-09-08T19:34:59.377Z,87.41
2018-09-08T19:35:59.330Z,87.79
2018-09-08T19:36:59.279Z,87.50
2018-09-08T19:37:59.231Z,87.50
2018-09-08T19:38:59.180Z,87.02
2018-09-08T19:39:59.129Z,87.50
2018-09-08T19:40:59.078Z,89.13
2018-09-08T19:41:59.029Z,88.08
2018-09-08T19:42:58.981Z,87.60
2018-09-08T19:43:58.935Z,87.41
2018-09-08T19:44:58.884Z,87.60
2018-09-08T19:45:58.832Z,88.03
2018-09-08T19:46:58.789Z,87.46
2018-09-08T19:47:58.733Z,87.94
2018-09-08T19:48:58.691Z,88.70
2018-09-08T19:49:58.635Z,87.84
2018-09-08T19:50:58.584Z,88.61
2018-09-08T19:51:58.536Z,89.09
2018-09-08T19:52:58.486Z,89.28
2018-09-08T19:53:58.435Z,89.09
2018-09-08T19:54:58.442Z,89.47
2018-09-08T19:55:58.335Z,89.76
2018-09-08T19:56:58.287Z,89.37
2018-09-08T19:57:58.244Z,88.70
2018-09-08T19:58:58.191Z,88.99
2018-09-08T19:59:58.137Z,89.09
2018-09-08T20:00:58.088Z,89.18
2018-09-08T20:01:58.079Z,88.80
2018-09-08T20:02:57.985Z,89.47
2018-09-08T20:03:57.939Z,88.85
2018-09-08T20:04:57.903Z,89.57
2018-09-08T20:05:57.843Z,89.57
2018-09-08T20:06:57.786Z,90.91
2018-09-08T20:07:57.743Z,89.57
2018-09-08T20:08:57.692Z,89.86
2018-09-08T20:09:57.636Z,90.23
2018-09-08T20:10:57.589Z,88.70
2018-09-08T20:11:57.537Z,88.28
2018-09-08T20:12:57.493Z,88.66
2018-09-08T20:13:57.436Z,88.76
2018-09-08T20:14:57.387Z,90.00
2018-09-08T20:15:57.342Z,89.72
2018-09-08T20:16:57.289Z,90.00
2018-09-08T20:17:57.237Z,89.52
2018-09-08T20:18:57.187Z,89.90
2018-09-08T20:19:57.138Z,88.85
2018-09-08T20:20:57.085Z,88.66
2018-09-08T20:21:57.036Z,89.04
2018-09-08T20:22:56.985Z,89.23
2018-09-08T20:23:56.935Z,88.85
2018-09-08T20:24:56.888Z,88.47
2018-09-08T20:25:56.835Z,89.62
2018-09-08T20:26:56.850Z,89.72
2018-09-08T20:27:56.739Z,90.00
2018-09-08T20:28:56.717Z,89.72
2018-09-08T20:29:56.634Z,89.81
2018-09-08T20:30:56.589Z,89.43
2018-09-08T20:31:56.534Z,89.48
2018-09-08T20:32:56.484Z,90.19
2018-09-08T20:33:56.437Z,90.67
2018-09-08T20:34:56.447Z,90.58
2018-09-08T20:35:56.339Z,90.58
2018-09-08T20:36:56.283Z,90.00
2018-09-08T20:37:56.233Z,90.39
2018-09-08T20:38:56.183Z,90.72
2018-09-08T20:39:56.132Z,90.63
2018-09-08T20:40:56.083Z,91.20
2018-09-08T20:41:56.036Z,91.39
2018-09-08T20:42:55.982Z,92.16
2018-09-08T20:43:55.931Z,92.25
2018-09-08T20:44:55.880Z,92.44
2018-09-08T20:45:55.830Z,91.44
2018-09-08T20:46:55.781Z,91.72
2018-09-08T20:47:55.736Z,91.44
2018-09-08T20:48:55.679Z,91.25
2018-09-08T20:49:55.629Z,90.77
2018-09-08T20:50:55.582Z,90.77
2018-09-08T20:51:55.530Z,91.34
2018-09-08T20:52:55.479Z,91.58
2018-09-08T20:53:55.427Z,92.06
2018-09-08T20:54:55.386Z,92.54
2018-09-08T20:55:55.328Z,92.44
2018-09-08T20:56:55.275Z,93.59
2018-09-08T20:57:55.227Z,93.40
2018-09-08T20:58:55.180Z,93.79
2018-09-08T20:59:55.126Z,93.79
2018-09-08T21:00:55.074Z,93.69
2018-09-08T21:01:55.023Z,93.30
2018-09-08T21:02:54.974Z,93.16
2018-09-08T21:03:54.923Z,93.40
2018-09-08T21:04:54.871Z,93.64
2018-09-08T21:05:54.826Z,93.79
2018-09-08T21:06:54.771Z,94.17
2018-09-08T21:07:54.720Z,93.55
2018-09-08T21:08:54.669Z,93.74
2018-09-08T21:09:54.620Z,94.12
2018-09-08T21:10:54.569Z,93.93
2018-09-08T21:11:54.518Z,93.45
2018-09-08T21:12:54.528Z,94.31
2018-09-08T21:13:54.416Z,94.02
2018-09-08T21:14:54.367Z,93.93
2018-09-08T21:15:54.317Z,95.07
2018-09-08T21:16:54.265Z,94.70
2018-09-08T21:17:54.214Z,94.50
2018-09-08T21:18:54.170Z,94.02
2018-09-08T21:19:54.151Z,93.84
2018-09-08T21:20:54.065Z,94.31
2018-09-08T21:21:54.011Z,94.89
2018-09-08T21:22:53.960Z,95.56
2018-09-08T21:23:53.911Z,95.27
2018-09-08T21:24:53.917Z,95.27
2018-09-08T21:25:53.814Z,94.89
2018-09-08T21:26:53.769Z,95.65
2018-09-08T21:27:53.815Z,94.98
2018-09-08T21:28:53.657Z,95.07
2018-09-08T21:29:53.605Z,94.41
2018-09-08T21:30:53.557Z,95.07
2018-09-08T21:31:53.504Z,95.17
2018-09-08T21:32:53.453Z,94.93
2018-09-08T21:33:53.405Z,95.89
2018-09-08T21:34:53.351Z,95.98
2018-09-08T21:35:53.301Z,95.89
2018-09-08T21:36:53.251Z,96.18
2018-09-08T21:37:53.198Z,96.66
2018-09-08T21:38:53.147Z,95.41
2018-09-08T21:39:53.098Z,95.32
2018-09-08T21:40:53.045Z,95.89
2018-09-08T21:41:53.057Z,95.51
2018-09-08T21:42:52.944Z,95.89
2018-09-08T21:43:52.892Z,95.98
2018-09-08T21:44:52.841Z,96.37
2018-09-08T21:45:52.790Z,95.98
2018-09-08T21:46:52.740Z,96.27
2018-09-08T21:47:52.689Z,95.70
2018-09-08T21:48:52.640Z,95.89
2018-09-08T21:49:52.586Z,95.98
2018-09-08T21:50:52.536Z,95.12
2018-09-08T21:51:52.485Z,95.89
2018-09-08T21:52:52.437Z,96.47
2018-09-08T21:53:52.386Z,95.98
2018-09-08T21:54:52.333Z,94.93
2018-09-08T21:55:52.281Z,95.03
2018-09-08T21:56:52.240Z,94.55
2018-09-08T21:57:52.186Z,95.22
2018-09-08T21:58:52.132Z,95.03
2018-09-08T21:59:52.079Z,95.32
2018-09-08T22:00:52.025Z,95.51
2018-09-08T22:01:51.973Z,95.51
2018-09-08T22:02:51.923Z,95.79
2018-09-08T22:03:51.872Z,95.79
2018-09-08T22:04:51.822Z,96.70
2018-09-08T22:05:51.771Z,96.80
2018-09-08T22:06:51.720Z,96.61
2018-09-08T22:07:51.670Z,96.51
2018-09-08T22:08:51.616Z,96.75
2018-09-08T22:09:51.634Z,97.33
2018-09-08T22:10:51.514Z,96.47
2018-09-08T22:11:51.464Z,96.66
2018-09-08T22:12:51.414Z,96.32
2018-09-08T22:13:51.364Z,96.61
2018-09-08T22:14:51.308Z,97.08
2018-09-08T22:15:51.291Z,96.80
2018-09-08T22:16:51.208Z,96.51
2018-09-08T22:17:51.155Z,96.99
2018-09-08T22:18:51.104Z,96.51
2018-09-08T22:19:51.053Z,96.51
2018-09-08T22:20:51.001Z,96.22
2018-09-08T22:21:50.951Z,96.51
2018-09-08T22:22:50.899Z,96.61
2018-09-08T22:23:50.851Z,97.28
2018-09-08T22:24:50.796Z,96.89
2018-09-08T22:25:50.748Z,97.18
2018-09-08T22:26:50.695Z,96.80
2018-09-08T22:27:50.642Z,96.89
2018-09-08T22:28:50.596Z,96.89
2018-09-08T22:29:50.545Z,96.89
2018-09-08T22:30:50.488Z,97.08
2018-09-08T22:31:50.436Z,96.89
2018-09-08T22:32:50.444Z,97.08
2018-09-08T22:33:50.333Z,97.47
2018-09-08T22:34:50.283Z,97.47
2018-09-08T22:35:50.232Z,98.04
2018-09-08T22:36:50.178Z,98.04
2018-09-08T22:37:50.128Z,98.13
2018-09-08T22:38:50.113Z,98.04
2018-09-08T22:39:50.027Z,98.33
2018-09-08T22:40:49.974Z,98.80
2018-09-08T22:41:49.921Z,98.42
2018-09-08T22:42:49.872Z,97.37
2018-09-08T22:43:49.821Z,97.28
2018-09-08T22:44:49.767Z,96.61
2018-09-08T22:45:49.719Z,96.70
2018-09-08T22:46:49.688Z,95.84
2018-09-08T22:47:49.617Z,96.42
2018-09-08T22:48:49.562Z,95.46
2018-09-08T22:49:49.513Z,95.75
2018-09-08T22:50:49.460Z,95.75
2018-09-08T22:51:49.408Z,96.51
2018-09-08T22:52:49.357Z,96.13
2018-09-08T22:53:49.310Z,97.23
2018-09-08T22:54:49.256Z,97.03
2018-09-08T22:55:49.201Z,96.46
2018-09-08T22:56:49.158Z,97.03
2018-09-08T22:57:49.097Z,96.94
2018-09-08T22:58:49.057Z,96.75
2018-09-08T22:59:48.995Z,96.99
2018-09-08T23:00:48.947Z,96.75
2018-09-08T23:01:48.891Z,96.84
2018-09-08T23:02:48.841Z,97.80
2018-09-08T23:03:48.789Z,97.52
2018-09-08T23:04:48.738Z,97.99
2018-09-08T23:05:48.687Z,98.85
2018-09-08T23:06:48.633Z,97.71
2018-09-08T23:07:48.584Z,97.42
2018-09-08T23:08:48.530Z,97.89
2018-09-08T23:09:48.478Z,97.61
2018-09-08T23:10:48.427Z,97.80
2018-09-08T23:11:48.375Z,98.08
2018-09-08T23:12:48.323Z,98.37
2018-09-08T23:13:48.271Z,98.66
2018-09-08T23:14:48.220Z,98.66
2018-09-08T23:15:48.167Z,98.37
2018-09-08T23:16:48.116Z,98.37
2018-09-08T23:17:48.065Z,97.89
2018-09-08T23:18:48.012Z,98.18
2018-09-08T23:19:47.962Z,98.18
2018-09-08T23:20:47.907Z,98.66
2018-09-08T23:21:47.857Z,98.08
2018-09-08T23:22:47.806Z,98.75
2018-09-08T23:23:47.761Z,98.28
2018-09-08T23:24:47.702Z,98.18
2018-09-08T23:25:47.652Z,97.89
2018-09-08T23:26:47.600Z,98.08
2018-09-08T23:27:47.546Z,98.18
2018-09-08T23:28:47.495Z,98.18
2018-09-08T23:29:47.446Z,98.28
2018-09-08T23:30:47.394Z,98.08